Disclaimer

Please do not use the information listed here in-flight or in-navigation, as they are not provided to us by the airports but are provided by volunteers, so they might be outdated.

Search


Regions


Airport information page

Radio informations:
Tower (TWR) - 118.1 MHz
Ground (GND) - 121.9 MHz
Automatic Terminal Information Service (ATIS) - 128.8 MHz
Approach (APP) - 126.7 MHz

Airport informations:
Latitude: 06° 55' 59.54" N
Longitude: 100° 23' 34.71" E
Elevation: 90 feet - 27 meters
Operating hours: Remarks
Operating agency: Civil government, landing fees and diplomatic clearance may be required
Timezone: UTC+7
Fuel: Jet A1, without icing nhibitor.

100/130 MIL Spec, low lead, aviation gasoline (BLUE)

Runway information:
08/26 - 10007 x 148 feet< - >3050 x 45 meters

Recent METARs:
VTSS 180600Z 23004KT 9999 FEW020 SCT100 30/24 Q1011 NOSIG
VTSS 180630Z 22004KT 9999 FEW020 SCT100 30/24 Q1010 NOSIG
VTSS 180730Z 21003KT 9999 FEW020 31/24 Q1009 NOSIG

Airport on the map: